createdAt,value
2023-02-02T00:05:11.328Z,20.93
2023-02-02T00:08:14.497Z,20.94
2023-02-02T00:11:19.905Z,20.96
2023-02-02T00:14:22.928Z,20.89
2023-02-02T00:17:25.907Z,20.94
2023-02-02T00:20:29.433Z,20.98
2023-02-02T00:23:32.470Z,21.02
2023-02-02T00:26:37.730Z,21.05
2023-02-02T00:29:41.082Z,21.07
2023-02-02T00:32:44.527Z,21.08
2023-02-02T00:35:47.543Z,21.10
2023-02-02T00:38:52.955Z,21.07
2023-02-02T00:41:57.579Z,21.10
2023-02-02T00:45:18.915Z,21.09
2023-02-02T00:48:24.557Z,21.09
2023-02-02T00:51:27.576Z,21.09
2023-02-02T00:54:30.697Z,21.10
2023-02-02T00:57:35.287Z,21.12
2023-02-02T01:00:38.749Z,21.12
2023-02-02T01:03:43.660Z,21.12
2023-02-02T01:06:46.672Z,21.10
2023-02-02T01:09:49.732Z,21.00
2023-02-02T01:12:54.344Z,21.06
2023-02-02T01:15:57.884Z,21.01
2023-02-02T01:19:00.929Z,21.09
2023-02-02T01:22:04.262Z,21.04
2023-02-02T01:25:07.538Z,21.10
2023-02-02T01:28:11.981Z,21.10
2023-02-02T01:31:16.718Z,21.11
2023-02-02T01:34:20.083Z,21.10
2023-02-02T01:37:23.305Z,21.12
2023-02-02T01:40:26.238Z,21.10
2023-02-02T01:43:52.834Z,21.05
2023-02-02T01:46:56.022Z,21.10
2023-02-02T01:50:02.045Z,21.10
2023-02-02T01:53:07.492Z,21.09
2023-02-02T01:56:13.693Z,21.09
2023-02-02T01:59:19.573Z,21.11
2023-02-02T02:02:22.739Z,21.09
2023-02-02T02:05:29.767Z,21.09
2023-02-02T02:08:37.095Z,21.01
2023-02-02T02:11:42.401Z,21.08
2023-02-02T02:15:09.434Z,21.07
2023-02-02T02:18:25.557Z,21.07
2023-02-02T02:22:06.577Z,21.07
2023-02-02T02:25:56.399Z,21.07
2023-02-02T02:29:18.047Z,21.00
2023-02-02T02:32:28.610Z,21.07
2023-02-02T02:35:37.177Z,21.07
2023-02-02T02:38:46.622Z,21.07
2023-02-02T02:41:56.330Z,21.04
2023-02-02T02:45:03.849Z,21.05
2023-02-02T02:48:11.045Z,21.04
2023-02-02T02:51:43.015Z,21.05
2023-02-02T02:54:50.913Z,21.04
2023-02-02T02:58:05.857Z,21.03
2023-02-02T03:01:13.882Z,20.88
2023-02-02T03:04:23.568Z,21.04
2023-02-02T03:07:31.585Z,21.03
2023-02-02T03:10:38.495Z,21.03
2023-02-02T03:13:43.232Z,21.01
2023-02-02T03:16:46.249Z,20.96
2023-02-02T03:19:50.606Z,21.00
2023-02-02T03:22:53.620Z,20.99
2023-02-02T03:29:07.067Z,20.98
2023-02-02T03:32:10.137Z,21.02
2023-02-02T03:35:14.598Z,20.99
2023-02-02T03:38:17.584Z,21.00
2023-02-02T03:41:20.589Z,21.01
2023-02-02T03:44:23.627Z,20.97
2023-02-02T03:47:30.128Z,20.96
2023-02-02T03:50:34.950Z,20.98
2023-02-02T03:53:37.905Z,20.99
2023-02-02T03:56:41.004Z,20.97
2023-02-02T03:59:46.578Z,20.98
2023-02-02T04:02:49.658Z,20.98
2023-02-02T04:05:55.649Z,20.99
2023-02-02T04:08:58.679Z,20.97
2023-02-02T04:12:01.797Z,20.99
2023-02-02T04:15:05.346Z,20.98
2023-02-02T04:18:08.384Z,20.99
2023-02-02T04:21:15.616Z,20.99
2023-02-02T04:24:18.612Z,20.98
2023-02-02T04:27:21.643Z,20.98
2023-02-02T04:30:24.706Z,20.95
2023-02-02T04:33:31.127Z,20.97
2023-02-02T04:36:37.966Z,20.97
2023-02-02T04:39:41.186Z,20.84
2023-02-02T04:42:47.698Z,20.93
2023-02-02T04:46:02.026Z,20.93
2023-02-02T04:49:05.155Z,20.93
2023-02-02T04:52:09.539Z,20.97
2023-02-02T04:55:12.569Z,20.90
2023-02-02T04:58:15.616Z,20.90
2023-02-02T05:01:20.872Z,20.77
2023-02-02T05:04:24.198Z,20.85
2023-02-02T05:07:28.765Z,20.88
2023-02-02T05:10:32.101Z,20.97
2023-02-02T05:13:35.187Z,20.99
2023-02-02T05:16:40.944Z,21.00
2023-02-02T05:19:44.160Z,21.03
2023-02-02T05:22:51.370Z,20.05
2023-02-02T05:25:54.870Z,18.38
2023-02-02T05:29:00.518Z,17.70
2023-02-02T05:32:03.658Z,19.18
2023-02-02T05:35:08.000Z,19.88
2023-02-02T05:38:12.567Z,20.32
2023-02-02T05:41:15.710Z,20.59
2023-02-02T05:44:21.591Z,20.77
2023-02-02T05:47:24.617Z,20.66
2023-02-02T05:50:27.746Z,20.73
2023-02-02T05:53:33.525Z,20.69
2023-02-02T05:56:38.893Z,20.74
2023-02-02T05:59:43.387Z,20.77
2023-02-02T06:02:46.444Z,20.79
2023-02-02T06:05:49.488Z,20.80
2023-02-02T06:08:53.903Z,20.81
2023-02-02T06:11:56.968Z,20.83
2023-02-02T06:14:59.994Z,20.83
2023-02-02T06:18:05.758Z,20.86
2023-02-02T06:21:08.933Z,20.85
2023-02-02T06:24:13.349Z,20.87
2023-02-02T06:27:16.359Z,20.88
2023-02-02T06:30:19.920Z,21.01
2023-02-02T06:33:22.959Z,21.04
2023-02-02T06:36:27.843Z,21.12
2023-02-02T06:39:32.305Z,21.12
2023-02-02T06:42:36.259Z,21.13
2023-02-02T06:45:40.403Z,21.08
2023-02-02T06:48:47.669Z,21.07
2023-02-02T06:51:50.913Z,21.11
2023-02-02T06:54:55.351Z,21.09
2023-02-02T06:57:58.797Z,21.08
2023-02-02T07:01:14.076Z,21.06
2023-02-02T07:04:18.257Z,21.08
2023-02-02T07:07:21.297Z,21.07
2023-02-02T07:11:12.782Z,21.09
2023-02-02T07:13:50.880Z,21.07
2023-02-02T07:16:54.401Z,21.08
2023-02-02T07:19:57.428Z,21.09
2023-02-02T07:23:02.453Z,21.06
2023-02-02T07:26:10.043Z,21.08
2023-02-02T07:29:17.389Z,21.07
2023-02-02T07:32:23.159Z,21.09
2023-02-02T07:35:26.647Z,21.09
2023-02-02T07:38:29.741Z,20.84
2023-02-02T07:41:38.090Z,20.97
2023-02-02T07:44:41.243Z,21.15
2023-02-02T07:47:44.244Z,21.17
2023-02-02T07:50:47.851Z,21.17
2023-02-02T07:53:53.388Z,21.16
2023-02-02T07:56:58.048Z,21.20
2023-02-02T08:00:01.084Z,21.29
2023-02-02T08:03:04.124Z,21.39
2023-02-02T08:06:12.734Z,21.48
2023-02-02T08:09:15.794Z,21.60
2023-02-02T08:12:24.754Z,21.69
2023-02-02T08:15:30.911Z,21.75
2023-02-02T08:18:36.381Z,21.84
2023-02-02T08:21:41.732Z,21.90
2023-02-02T08:24:44.727Z,21.90
2023-02-02T08:27:49.165Z,21.91
2023-02-02T08:30:54.275Z,21.87
2023-02-02T08:33:58.654Z,21.79
2023-02-02T08:37:01.767Z,21.71
2023-02-02T08:40:05.345Z,21.67
2023-02-02T08:43:11.953Z,21.68
2023-02-02T08:46:21.945Z,21.71
2023-02-02T08:49:25.930Z,21.69
2023-02-02T08:52:30.474Z,21.63
2023-02-02T08:55:33.527Z,21.55
2023-02-02T08:58:47.134Z,21.63
2023-02-02T09:01:51.597Z,21.58
2023-02-02T09:04:54.694Z,21.55
2023-02-02T09:07:58.007Z,21.48
2023-02-02T09:11:05.224Z,21.41
2023-02-02T09:14:11.422Z,21.42
2023-02-02T09:17:14.457Z,21.45
2023-02-02T09:20:20.228Z,21.44
2023-02-02T09:23:25.903Z,21.32
2023-02-02T09:26:30.844Z,21.43
2023-02-02T09:29:35.485Z,21.43
2023-02-02T09:32:38.601Z,21.46
2023-02-02T09:35:41.757Z,21.47
2023-02-02T09:38:45.732Z,21.46
2023-02-02T09:42:29.475Z,21.57
2023-02-02T09:45:43.197Z,21.67
2023-02-02T09:48:54.036Z,21.76
2023-02-02T09:52:05.049Z,21.80
2023-02-02T09:55:16.399Z,21.82
2023-02-02T09:58:23.035Z,21.93
2023-02-02T10:01:32.636Z,21.94
2023-02-02T10:04:38.018Z,21.86
2023-02-02T10:07:48.444Z,21.99
2023-02-02T10:10:52.762Z,22.02
2023-02-02T10:14:01.018Z,22.02
2023-02-02T10:17:25.212Z,21.98
2023-02-02T10:20:39.759Z,21.88
2023-02-02T10:23:55.042Z,21.80
2023-02-02T10:27:04.323Z,21.75
2023-02-02T10:30:16.950Z,21.70
2023-02-02T10:33:35.580Z,21.64
2023-02-02T10:37:00.004Z,21.59
2023-02-02T10:40:16.348Z,21.54
2023-02-02T10:43:50.370Z,21.54
2023-02-02T10:46:56.959Z,21.50
2023-02-02T10:50:18.075Z,21.47
2023-02-02T10:53:22.189Z,21.40
2023-02-02T10:56:32.576Z,21.47
2023-02-02T10:59:44.449Z,21.46
2023-02-02T11:02:49.376Z,21.44
2023-02-02T11:06:12.074Z,21.52
2023-02-02T11:09:15.990Z,21.62
2023-02-02T11:12:26.089Z,21.68
2023-02-02T11:15:32.022Z,21.70
2023-02-02T11:18:35.269Z,21.73
2023-02-02T11:21:42.434Z,21.74
2023-02-02T11:24:49.791Z,21.75
2023-02-02T11:27:53.168Z,21.77
2023-02-02T11:30:56.449Z,21.78
2023-02-02T11:34:11.767Z,21.70
2023-02-02T11:37:22.222Z,21.77
2023-02-02T11:40:33.705Z,21.75
2023-02-02T11:43:41.934Z,21.74
2023-02-02T11:46:49.240Z,21.74
2023-02-02T11:49:53.457Z,21.71
2023-02-02T11:52:58.944Z,21.72
2023-02-02T11:56:07.184Z,21.71
2023-02-02T11:59:30.212Z,21.69
2023-02-02T12:02:34.152Z,21.68
2023-02-02T12:05:38.459Z,21.67
2023-02-02T12:08:42.865Z,21.67
2023-02-02T12:11:59.385Z,21.63
2023-02-02T12:15:12.387Z,21.62
2023-02-02T12:18:32.449Z,21.62
2023-02-02T12:21:45.473Z,21.57
2023-02-02T12:24:56.725Z,21.58
2023-02-02T12:28:06.261Z,21.57
2023-02-02T12:31:16.647Z,21.55
2023-02-02T12:34:30.521Z,21.56
2023-02-02T12:37:47.129Z,21.55
2023-02-02T12:41:18.786Z,21.55
2023-02-02T12:44:33.703Z,21.55
2023-02-02T12:47:45.330Z,21.54
2023-02-02T12:51:01.932Z,21.52
2023-02-02T12:54:32.814Z,21.45
2023-02-02T12:57:54.185Z,21.47
2023-02-02T13:01:21.308Z,21.50
2023-02-02T13:08:22.800Z,21.47
2023-02-02T13:11:41.223Z,21.47
2023-02-02T13:14:50.566Z,21.45
2023-02-02T13:17:57.367Z,21.48
2023-02-02T13:21:03.620Z,21.47
2023-02-02T13:24:09.518Z,21.38
2023-02-02T13:27:16.904Z,21.44
2023-02-02T13:30:31.654Z,21.45
2023-02-02T13:33:38.090Z,21.45
2023-02-02T13:36:44.155Z,21.46
2023-02-02T13:39:53.886Z,21.44
2023-02-02T13:43:04.977Z,21.44
2023-02-02T13:46:19.138Z,21.45
2023-02-02T13:49:29.035Z,21.44
2023-02-02T13:52:47.444Z,21.44
2023-02-02T13:56:10.906Z,21.41
2023-02-02T13:59:39.572Z,21.43
2023-02-02T14:02:47.685Z,21.44
2023-02-02T14:06:05.303Z,21.43
2023-02-02T14:09:09.264Z,21.44
2023-02-02T14:12:12.986Z,21.41
2023-02-02T14:15:16.569Z,21.37
2023-02-02T14:18:56.906Z,21.43
2023-02-02T14:22:05.952Z,21.44
2023-02-02T14:25:42.142Z,21.44
2023-02-02T14:28:48.572Z,21.42
2023-02-02T14:31:57.318Z,21.33
2023-02-02T14:35:24.888Z,21.40
2023-02-02T14:38:44.596Z,21.38
2023-02-02T14:42:44.130Z,21.39
2023-02-02T14:45:48.942Z,21.37
2023-02-02T14:49:14.768Z,21.37
2023-02-02T14:52:23.825Z,21.36
2023-02-02T14:55:28.472Z,21.11
2023-02-02T15:02:53.337Z,21.32
2023-02-02T15:06:04.003Z,21.25
2023-02-02T15:09:38.635Z,21.31
2023-02-02T15:12:45.800Z,21.29
2023-02-02T15:15:53.491Z,21.31
2023-02-02T15:19:06.502Z,21.26
2023-02-02T15:22:23.985Z,21.21
2023-02-02T15:25:34.173Z,21.25
2023-02-02T15:28:43.416Z,21.24
2023-02-02T15:31:50.084Z,21.11
2023-02-02T15:34:57.375Z,21.23
2023-02-02T15:38:02.609Z,21.24
2023-02-02T15:41:14.572Z,21.24
2023-02-02T15:44:23.585Z,21.23
2023-02-02T15:47:32.769Z,21.18
2023-02-02T15:50:36.099Z,21.21
2023-02-02T15:53:49.652Z,21.21
2023-02-02T15:56:58.744Z,21.21
2023-02-02T16:00:23.421Z,21.20
2023-02-02T16:03:31.850Z,21.23
2023-02-02T16:06:35.933Z,21.22
2023-02-02T16:09:41.823Z,21.21
2023-02-02T16:12:46.345Z,21.21
2023-02-02T16:15:56.443Z,21.19
2023-02-02T16:19:07.613Z,21.27
2023-02-02T16:22:18.019Z,21.30
2023-02-02T16:25:24.010Z,21.21
2023-02-02T16:28:29.407Z,21.24
2023-02-02T16:31:32.873Z,21.24
2023-02-02T16:34:47.056Z,21.22
2023-02-02T16:37:50.229Z,21.23
2023-02-02T16:41:07.789Z,21.25
2023-02-02T16:44:32.660Z,21.35
2023-02-02T16:47:39.096Z,21.41
2023-02-02T16:50:42.174Z,21.44
2023-02-02T16:53:47.536Z,21.48
2023-02-02T16:56:53.135Z,21.50
2023-02-02T17:00:00.523Z,21.52
2023-02-02T17:03:08.559Z,21.54
2023-02-02T17:06:11.733Z,21.47
2023-02-02T17:09:27.128Z,21.35
2023-02-02T17:12:34.235Z,21.26
2023-02-02T17:15:41.080Z,21.25
2023-02-02T17:18:44.151Z,21.18
2023-02-02T17:21:51.341Z,21.25
2023-02-02T17:24:54.439Z,21.23
2023-02-02T17:28:01.649Z,21.22
2023-02-02T17:31:09.042Z,21.19
2023-02-02T17:34:14.935Z,21.09
2023-02-02T17:37:17.974Z,21.17
2023-02-02T17:40:26.515Z,21.16
2023-02-02T17:43:30.249Z,21.17
2023-02-02T17:46:35.438Z,21.17
2023-02-02T17:49:39.080Z,21.14
2023-02-02T17:52:42.083Z,21.15
2023-02-02T17:55:46.327Z,21.14
2023-02-02T17:58:49.540Z,21.13
2023-02-02T18:02:00.868Z,21.15
2023-02-02T18:05:04.380Z,21.13
2023-02-02T18:08:07.912Z,21.12
2023-02-02T18:11:13.573Z,21.12
2023-02-02T18:14:16.721Z,21.14
2023-02-02T18:17:21.269Z,21.12
2023-02-02T18:20:24.728Z,21.12
2023-02-02T18:23:28.111Z,21.11
2023-02-02T18:26:32.743Z,21.13
2023-02-02T18:29:36.156Z,21.12
2023-02-02T18:32:42.159Z,20.85
2023-02-02T18:35:46.160Z,21.12
2023-02-02T18:38:51.382Z,21.11
2023-02-02T18:41:54.447Z,21.09
2023-02-02T18:44:57.510Z,21.10
2023-02-02T18:48:01.989Z,21.08
2023-02-02T18:51:08.642Z,21.09
2023-02-02T18:54:12.642Z,21.14
2023-02-02T18:57:17.765Z,21.20
2023-02-02T19:00:22.251Z,21.24
2023-02-02T19:03:26.743Z,21.27
2023-02-02T19:06:47.222Z,21.27
2023-02-02T19:09:50.345Z,21.27
2023-02-02T19:12:56.783Z,21.29
2023-02-02T19:16:01.133Z,21.18
2023-02-02T19:19:13.200Z,21.29
2023-02-02T19:22:20.912Z,21.27
2023-02-02T19:25:24.223Z,21.26
2023-02-02T19:28:29.787Z,21.26
2023-02-02T19:31:32.871Z,21.25
2023-02-02T19:34:37.814Z,21.24
2023-02-02T19:37:43.279Z,21.23
2023-02-02T19:40:48.347Z,21.23
2023-02-02T19:44:00.077Z,21.24
2023-02-02T19:47:05.562Z,21.22
2023-02-02T19:50:20.776Z,21.20
2023-02-02T19:53:28.341Z,21.20
2023-02-02T19:56:38.128Z,21.18
2023-02-02T19:59:43.397Z,21.16
2023-02-02T20:02:58.886Z,21.20
2023-02-02T20:06:04.968Z,21.21
2023-02-02T20:09:16.134Z,21.19
2023-02-02T20:12:30.280Z,21.16
2023-02-02T20:15:35.766Z,21.15
2023-02-02T20:18:43.099Z,21.16
2023-02-02T20:21:52.586Z,21.17
2023-02-02T20:24:57.315Z,21.19
2023-02-02T20:28:00.439Z,21.18
2023-02-02T20:31:05.563Z,21.18
2023-02-02T20:34:26.272Z,21.18
2023-02-02T20:37:35.400Z,21.18
2023-02-02T20:40:40.489Z,21.16
2023-02-02T20:43:44.660Z,21.17
2023-02-02T20:46:47.648Z,21.17
2023-02-02T20:49:51.123Z,21.08
2023-02-02T20:52:55.879Z,21.16
2023-02-02T20:56:09.101Z,21.13
2023-02-02T20:59:12.245Z,21.14
2023-02-02T21:02:23.859Z,21.09
2023-02-02T21:05:26.990Z,21.02
2023-02-02T21:08:31.600Z,20.95
2023-02-02T21:11:34.656Z,20.88
2023-02-02T21:14:37.675Z,21.00
2023-02-02T21:17:42.464Z,20.98
2023-02-02T21:20:47.571Z,20.96
2023-02-02T21:23:53.386Z,20.95
2023-02-02T21:26:57.723Z,20.86
2023-02-02T21:33:05.973Z,20.93
2023-02-02T21:36:26.291Z,20.94
2023-02-02T21:39:34.503Z,20.92
2023-02-02T21:42:37.543Z,20.91
2023-02-02T21:45:40.674Z,20.92
2023-02-02T21:48:44.177Z,20.88
2023-02-02T21:51:47.262Z,20.90
2023-02-02T21:54:51.632Z,20.90
2023-02-02T21:57:54.652Z,20.83
2023-02-02T22:01:00.842Z,20.90
2023-02-02T22:04:08.201Z,20.90
2023-02-02T22:07:15.540Z,20.92
2023-02-02T22:10:34.531Z,20.91
2023-02-02T22:13:39.833Z,20.69
2023-02-02T22:16:50.955Z,20.90
2023-02-02T22:20:00.857Z,20.79
2023-02-02T22:23:04.711Z,20.90
2023-02-02T22:26:21.112Z,20.88
2023-02-02T22:29:24.641Z,20.92
2023-02-02T22:32:27.643Z,20.93
2023-02-02T22:35:30.733Z,20.92
2023-02-02T22:38:33.832Z,20.82
2023-02-02T22:41:39.625Z,20.91
2023-02-02T22:44:44.053Z,20.91
2023-02-02T22:47:48.035Z,20.90
2023-02-02T22:50:51.017Z,20.92
2023-02-02T22:53:54.024Z,20.91
2023-02-02T22:56:58.531Z,20.84
2023-02-02T23:00:01.475Z,20.90
2023-02-02T23:03:04.665Z,20.88
2023-02-02T23:06:09.787Z,20.90
2023-02-02T23:09:12.868Z,20.90
2023-02-02T23:12:17.310Z,20.92
2023-02-02T23:15:21.023Z,20.92
2023-02-02T23:18:26.487Z,20.92
2023-02-02T23:21:29.507Z,20.90
2023-02-02T23:24:32.546Z,20.86
2023-02-02T23:27:37.030Z,20.91
2023-02-02T23:30:40.052Z,20.90
2023-02-02T23:33:43.039Z,20.90
2023-02-02T23:36:46.236Z,20.90
2023-02-02T23:39:49.229Z,20.91
2023-02-02T23:42:53.782Z,20.88
2023-02-02T23:45:56.727Z,20.84
2023-02-02T23:49:00.875Z,20.89
2023-02-02T23:52:04.271Z,20.88
2023-02-02T23:55:08.524Z,20.89
2023-02-02T23:58:21.187Z,20.83
